sensor_id;sensor_type;location;lat;lon;timestamp;P1;durP1;ratioP1;P2;durP2;ratioP2
75774;SDS011;64505;51.458;7.556;2023-04-12T00:01:17;7.57;;;1.00;;
75774;SDS011;64505;51.458;7.556;2023-04-12T00:03:19;5.32;;;1.00;;
75774;SDS011;64505;51.458;7.556;2023-04-12T00:05:24;7.03;;;1.15;;
75774;SDS011;64505;51.458;7.556;2023-04-12T00:07:29;7.10;;;1.25;;
75774;SDS011;64505;51.458;7.556;2023-04-12T00:09:30;4.53;;;1.00;;
75774;SDS011;64505;51.458;7.556;2023-04-12T00:11:32;2.92;;;0.75;;
75774;SDS011;64505;51.458;7.556;2023-04-12T00:13:33;6.00;;;0.98;;
75774;SDS011;64505;51.458;7.556;2023-04-12T00:15:35;5.25;;;1.23;;
75774;SDS011;64505;51.458;7.556;2023-04-12T00:17:37;4.13;;;1.10;;
75774;SDS011;64505;51.458;7.556;2023-04-12T00:19:38;6.03;;;1.20;;
75774;SDS011;64505;51.458;7.556;2023-04-12T00:21:43;5.57;;;1.33;;
75774;SDS011;64505;51.458;7.556;2023-04-12T00:23:45;6.88;;;1.10;;
75774;SDS011;64505;51.458;7.556;2023-04-12T00:25:47;3.50;;;0.77;;
75774;SDS011;64505;51.458;7.556;2023-04-12T00:27:48;4.13;;;1.25;;
75774;SDS011;64505;51.458;7.556;2023-04-12T00:29:50;6.05;;;1.15;;
75774;SDS011;64505;51.458;7.556;2023-04-12T00:31:51;8.57;;;1.20;;
75774;SDS011;64505;51.458;7.556;2023-04-12T00:33:53;5.20;;;1.13;;
75774;SDS011;64505;51.458;7.556;2023-04-12T00:35:55;4.80;;;1.10;;
75774;SDS011;64505;51.458;7.556;2023-04-12T00:37:56;3.42;;;0.80;;
75774;SDS011;64505;51.458;7.556;2023-04-12T00:39:57;7.05;;;1.33;;
75774;SDS011;64505;51.458;7.556;2023-04-12T00:42:02;9.30;;;1.25;;
75774;SDS011;64505;51.458;7.556;2023-04-12T00:44:05;3.53;;;1.00;;
75774;SDS011;64505;51.458;7.556;2023-04-12T00:46:07;8.40;;;1.33;;
75774;SDS011;64505;51.458;7.556;2023-04-12T00:48:09;6.90;;;1.02;;
75774;SDS011;64505;51.458;7.556;2023-04-12T00:50:11;6.75;;;1.00;;
75774;SDS011;64505;51.458;7.556;2023-04-12T00:52:12;3.22;;;1.02;;
75774;SDS011;64505;51.458;7.556;2023-04-12T00:54:14;5.60;;;1.30;;
75774;SDS011;64505;51.458;7.556;2023-04-12T00:56:18;4.78;;;0.90;;
75774;SDS011;64505;51.458;7.556;2023-04-12T00:58:23;4.90;;;1.10;;
75774;SDS011;64505;51.458;7.556;2023-04-12T01:00:25;3.15;;;0.95;;
75774;SDS011;64505;51.458;7.556;2023-04-12T01:02:26;5.45;;;1.27;;
75774;SDS011;64505;51.458;7.556;2023-04-12T01:04:31;6.05;;;1.52;;
75774;SDS011;64505;51.458;7.556;2023-04-12T01:11:31;5.25;;;1.13;;
75774;SDS011;64505;51.458;7.556;2023-04-12T01:13:38;7.07;;;1.00;;
75774;SDS011;64505;51.458;7.556;2023-04-12T01:15:53;4.93;;;1.13;;
75774;SDS011;64505;51.458;7.556;2023-04-12T01:18:08;5.10;;;1.00;;
75774;SDS011;64505;51.458;7.556;2023-04-12T01:20:16;2.55;;;1.13;;
75774;SDS011;64505;51.458;7.556;2023-04-12T01:27:23;5.88;;;1.13;;
75774;SDS011;64505;51.458;7.556;2023-04-12T01:31:57;4.05;;;0.90;;
75774;SDS011;64505;51.458;7.556;2023-04-12T01:34:00;8.45;;;1.38;;
75774;SDS011;64505;51.458;7.556;2023-04-12T01:36:06;8.80;;;1.13;;
75774;SDS011;64505;51.458;7.556;2023-04-12T01:38:15;6.00;;;1.38;;
75774;SDS011;64505;51.458;7.556;2023-04-12T01:40:16;5.68;;;1.92;;
75774;SDS011;64505;51.458;7.556;2023-04-12T01:42:19;3.35;;;1.00;;
75774;SDS011;64505;51.458;7.556;2023-04-12T01:44:21;4.97;;;1.23;;
75774;SDS011;64505;51.458;7.556;2023-04-12T01:46:22;6.45;;;1.25;;
75774;SDS011;64505;51.458;7.556;2023-04-12T01:48:24;6.22;;;1.00;;
75774;SDS011;64505;51.458;7.556;2023-04-12T01:50:32;3.53;;;0.95;;
75774;SDS011;64505;51.458;7.556;2023-04-12T01:52:42;3.72;;;1.00;;
75774;SDS011;64505;51.458;7.556;2023-04-12T01:54:50;5.97;;;1.30;;
75774;SDS011;64505;51.458;7.556;2023-04-12T01:56:58;4.40;;;1.02;;
75774;SDS011;64505;51.458;7.556;2023-04-12T01:59:02;7.80;;;1.23;;
75774;SDS011;64505;51.458;7.556;2023-04-12T02:01:04;4.93;;;1.05;;
75774;SDS011;64505;51.458;7.556;2023-04-12T02:03:07;5.95;;;1.20;;
75774;SDS011;64505;51.458;7.556;2023-04-12T02:05:09;6.35;;;1.00;;
75774;SDS011;64505;51.458;7.556;2023-04-12T02:07:11;4.95;;;1.00;;
75774;SDS011;64505;51.458;7.556;2023-04-12T02:09:14;5.47;;;1.15;;
75774;SDS011;64505;51.458;7.556;2023-04-12T02:11:16;5.63;;;1.30;;
75774;SDS011;64505;51.458;7.556;2023-04-12T02:13:17;5.35;;;1.15;;
75774;SDS011;64505;51.458;7.556;2023-04-12T02:15:19;3.97;;;1.15;;
75774;SDS011;64505;51.458;7.556;2023-04-12T02:17:21;7.13;;;1.27;;
75774;SDS011;64505;51.458;7.556;2023-04-12T02:19:22;3.95;;;0.90;;
75774;SDS011;64505;51.458;7.556;2023-04-12T02:21:24;8.80;;;1.48;;
75774;SDS011;64505;51.458;7.556;2023-04-12T02:23:27;5.13;;;1.10;;
75774;SDS011;64505;51.458;7.556;2023-04-12T02:25:29;4.97;;;1.00;;
75774;SDS011;64505;51.458;7.556;2023-04-12T02:27:31;7.32;;;1.60;;
75774;SDS011;64505;51.458;7.556;2023-04-12T02:29:32;3.88;;;1.50;;
75774;SDS011;64505;51.458;7.556;2023-04-12T02:31:34;5.72;;;1.50;;
75774;SDS011;64505;51.458;7.556;2023-04-12T02:33:38;7.80;;;1.60;;
75774;SDS011;64505;51.458;7.556;2023-04-12T02:35:41;7.13;;;1.20;;
75774;SDS011;64505;51.458;7.556;2023-04-12T02:37:43;4.78;;;1.40;;
75774;SDS011;64505;51.458;7.556;2023-04-12T02:39:48;4.85;;;1.02;;
75774;SDS011;64505;51.458;7.556;2023-04-12T02:41:50;5.50;;;1.23;;
75774;SDS011;64505;51.458;7.556;2023-04-12T02:43:51;4.35;;;1.10;;
75774;SDS011;64505;51.458;7.556;2023-04-12T02:45:52;4.88;;;1.20;;
75774;SDS011;64505;51.458;7.556;2023-04-12T02:47:54;5.05;;;0.95;;
75774;SDS011;64505;51.458;7.556;2023-04-12T02:49:55;4.78;;;1.13;;
75774;SDS011;64505;51.458;7.556;2023-04-12T02:51:57;6.28;;;1.25;;
75774;SDS011;64505;51.458;7.556;2023-04-12T02:53:58;6.78;;;1.30;;
75774;SDS011;64505;51.458;7.556;2023-04-12T02:56:02;3.80;;;1.40;;
75774;SDS011;64505;51.458;7.556;2023-04-12T02:58:06;3.13;;;1.10;;
75774;SDS011;64505;51.458;7.556;2023-04-12T03:00:08;5.05;;;1.30;;
75774;SDS011;64505;51.458;7.556;2023-04-12T03:02:12;6.63;;;1.10;;
75774;SDS011;64505;51.458;7.556;2023-04-12T03:04:14;8.70;;;1.83;;
75774;SDS011;64505;51.458;7.556;2023-04-12T03:06:16;10.63;;;2.10;;
75774;SDS011;64505;51.458;7.556;2023-04-12T03:08:18;6.45;;;1.65;;
75774;SDS011;64505;51.458;7.556;2023-04-12T03:10:19;5.63;;;1.48;;
75774;SDS011;64505;51.458;7.556;2023-04-12T03:12:21;6.05;;;1.38;;
75774;SDS011;64505;51.458;7.556;2023-04-12T03:14:22;4.18;;;1.23;;
75774;SDS011;64505;51.458;7.556;2023-04-12T03:16:24;6.40;;;1.70;;
75774;SDS011;64505;51.458;7.556;2023-04-12T03:18:30;5.85;;;1.30;;
75774;SDS011;64505;51.458;7.556;2023-04-12T03:20:31;8.73;;;2.30;;
75774;SDS011;64505;51.458;7.556;2023-04-12T03:22:33;4.80;;;1.65;;
75774;SDS011;64505;51.458;7.556;2023-04-12T03:24:36;7.05;;;1.60;;
75774;SDS011;64505;51.458;7.556;2023-04-12T03:26:38;5.00;;;1.05;;
75774;SDS011;64505;51.458;7.556;2023-04-12T03:28:39;4.43;;;1.08;;
75774;SDS011;64505;51.458;7.556;2023-04-12T03:30:41;5.15;;;1.00;;
75774;SDS011;64505;51.458;7.556;2023-04-12T03:32:43;3.90;;;1.10;;
75774;SDS011;64505;51.458;7.556;2023-04-12T03:34:45;7.13;;;1.23;;
75774;SDS011;64505;51.458;7.556;2023-04-12T03:36:46;3.45;;;1.02;;
75774;SDS011;64505;51.458;7.556;2023-04-12T03:38:48;3.75;;;1.30;;
75774;SDS011;64505;51.458;7.556;2023-04-12T03:40:49;4.63;;;0.85;;
75774;SDS011;64505;51.458;7.556;2023-04-12T03:42:51;5.25;;;1.00;;
75774;SDS011;64505;51.458;7.556;2023-04-12T03:44:52;3.38;;;1.05;;
75774;SDS011;64505;51.458;7.556;2023-04-12T03:46:54;3.63;;;1.13;;
75774;SDS011;64505;51.458;7.556;2023-04-12T03:48:56;3.55;;;0.93;;
75774;SDS011;64505;51.458;7.556;2023-04-12T03:50:57;4.43;;;0.95;;
75774;SDS011;64505;51.458;7.556;2023-04-12T03:52:59;3.38;;;1.08;;
75774;SDS011;64505;51.458;7.556;2023-04-12T03:55:01;2.35;;;1.00;;
75774;SDS011;64505;51.458;7.556;2023-04-12T03:57:02;2.72;;;0.93;;
75774;SDS011;64505;51.458;7.556;2023-04-12T03:59:05;3.80;;;1.20;;
75774;SDS011;64505;51.458;7.556;2023-04-12T04:01:07;1.67;;;0.77;;
75774;SDS011;64505;51.458;7.556;2023-04-12T04:03:09;4.45;;;0.73;;
75774;SDS011;64505;51.458;7.556;2023-04-12T04:05:11;2.13;;;1.05;;
75774;SDS011;64505;51.458;7.556;2023-04-12T04:07:13;6.53;;;1.08;;
75774;SDS011;64505;51.458;7.556;2023-04-12T04:09:14;5.78;;;1.30;;
75774;SDS011;64505;51.458;7.556;2023-04-12T04:11:16;6.00;;;1.10;;
75774;SDS011;64505;51.458;7.556;2023-04-12T04:13:18;2.88;;;0.90;;
75774;SDS011;64505;51.458;7.556;2023-04-12T04:15:19;4.78;;;1.20;;
75774;SDS011;64505;51.458;7.556;2023-04-12T04:17:21;3.15;;;1.10;;
75774;SDS011;64505;51.458;7.556;2023-04-12T04:19:22;4.15;;;0.90;;
75774;SDS011;64505;51.458;7.556;2023-04-12T04:21:24;2.17;;;0.98;;
75774;SDS011;64505;51.458;7.556;2023-04-12T04:23:26;4.50;;;1.00;;
75774;SDS011;64505;51.458;7.556;2023-04-12T04:25:30;4.03;;;1.00;;
75774;SDS011;64505;51.458;7.556;2023-04-12T04:27:33;4.30;;;1.15;;
75774;SDS011;64505;51.458;7.556;2023-04-12T04:29:38;6.18;;;1.25;;
75774;SDS011;64505;51.458;7.556;2023-04-12T04:31:44;4.78;;;1.05;;
75774;SDS011;64505;51.458;7.556;2023-04-12T04:33:46;3.15;;;0.90;;
75774;SDS011;64505;51.458;7.556;2023-04-12T04:35:47;2.95;;;1.33;;
75774;SDS011;64505;51.458;7.556;2023-04-12T04:37:49;3.95;;;1.20;;
75774;SDS011;64505;51.458;7.556;2023-04-12T04:39:52;3.70;;;1.30;;
75774;SDS011;64505;51.458;7.556;2023-04-12T04:41:54;4.38;;;1.15;;
75774;SDS011;64505;51.458;7.556;2023-04-12T04:43:55;6.53;;;2.17;;
75774;SDS011;64505;51.458;7.556;2023-04-12T04:45:57;9.57;;;3.00;;
75774;SDS011;64505;51.458;7.556;2023-04-12T04:47:58;8.10;;;2.38;;
75774;SDS011;64505;51.458;7.556;2023-04-12T04:50:03;5.28;;;2.00;;
75774;SDS011;64505;51.458;7.556;2023-04-12T04:52:05;5.82;;;1.73;;
75774;SDS011;64505;51.458;7.556;2023-04-12T04:54:08;5.18;;;1.70;;
75774;SDS011;64505;51.458;7.556;2023-04-12T04:56:10;5.25;;;1.60;;
75774;SDS011;64505;51.458;7.556;2023-04-12T04:58:12;4.05;;;1.00;;
75774;SDS011;64505;51.458;7.556;2023-04-12T05:00:14;3.75;;;1.10;;
75774;SDS011;64505;51.458;7.556;2023-04-12T05:02:16;2.75;;;1.15;;
75774;SDS011;64505;51.458;7.556;2023-04-12T05:04:18;4.65;;;1.25;;
75774;SDS011;64505;51.458;7.556;2023-04-12T05:06:19;4.15;;;1.40;;
75774;SDS011;64505;51.458;7.556;2023-04-12T05:08:21;3.08;;;1.02;;
75774;SDS011;64505;51.458;7.556;2023-04-12T05:10:23;4.97;;;1.10;;
75774;SDS011;64505;51.458;7.556;2023-04-12T05:12:24;5.00;;;1.70;;
75774;SDS011;64505;51.458;7.556;2023-04-12T05:14:26;2.92;;;1.08;;
75774;SDS011;64505;51.458;7.556;2023-04-12T05:16:44;2.03;;;0.98;;
75774;SDS011;64505;51.458;7.556;2023-04-12T05:18:46;3.88;;;0.80;;
75774;SDS011;64505;51.458;7.556;2023-04-12T05:20:47;2.83;;;0.85;;
75774;SDS011;64505;51.458;7.556;2023-04-12T05:22:49;2.15;;;0.90;;
75774;SDS011;64505;51.458;7.556;2023-04-12T05:24:50;3.20;;;1.02;;
75774;SDS011;64505;51.458;7.556;2023-04-12T05:26:51;3.13;;;1.20;;
75774;SDS011;64505;51.458;7.556;2023-04-12T05:28:53;4.47;;;1.33;;
75774;SDS011;64505;51.458;7.556;2023-04-12T05:30:54;3.33;;;1.00;;
75774;SDS011;64505;51.458;7.556;2023-04-12T05:32:56;4.05;;;1.23;;
75774;SDS011;64505;51.458;7.556;2023-04-12T05:34:58;3.33;;;1.00;;
75774;SDS011;64505;51.458;7.556;2023-04-12T05:36:59;3.20;;;0.80;;
75774;SDS011;64505;51.458;7.556;2023-04-12T05:39:00;2.92;;;0.80;;
75774;SDS011;64505;51.458;7.556;2023-04-12T05:41:02;1.63;;;0.70;;
75774;SDS011;64505;51.458;7.556;2023-04-12T05:43:04;3.13;;;1.05;;
75774;SDS011;64505;51.458;7.556;2023-04-12T05:45:06;4.18;;;1.10;;
75774;SDS011;64505;51.458;7.556;2023-04-12T05:47:08;2.88;;;1.10;;
75774;SDS011;64505;51.458;7.556;2023-04-12T05:49:09;1.73;;;0.68;;
75774;SDS011;64505;51.458;7.556;2023-04-12T05:51:11;3.50;;;1.30;;
75774;SDS011;64505;51.458;7.556;2023-04-12T05:53:12;3.25;;;0.80;;
75774;SDS011;64505;51.458;7.556;2023-04-12T05:55:14;3.15;;;0.75;;
75774;SDS011;64505;51.458;7.556;2023-04-12T05:57:16;2.58;;;0.90;;
75774;SDS011;64505;51.458;7.556;2023-04-12T05:59:17;2.38;;;0.82;;
75774;SDS011;64505;51.458;7.556;2023-04-12T06:01:19;5.20;;;1.30;;
75774;SDS011;64505;51.458;7.556;2023-04-12T06:03:21;2.47;;;0.90;;
75774;SDS011;64505;51.458;7.556;2023-04-12T06:05:26;2.67;;;0.90;;
75774;SDS011;64505;51.458;7.556;2023-04-12T06:07:28;2.75;;;0.90;;
75774;SDS011;64505;51.458;7.556;2023-04-12T06:09:30;2.67;;;1.00;;
75774;SDS011;64505;51.458;7.556;2023-04-12T06:11:31;2.13;;;0.90;;
75774;SDS011;64505;51.458;7.556;2023-04-12T06:13:33;2.38;;;1.00;;
75774;SDS011;64505;51.458;7.556;2023-04-12T06:15:35;2.90;;;1.00;;
75774;SDS011;64505;51.458;7.556;2023-04-12T06:17:37;3.15;;;0.90;;
75774;SDS011;64505;51.458;7.556;2023-04-12T06:19:38;2.47;;;0.80;;
75774;SDS011;64505;51.458;7.556;2023-04-12T06:21:40;1.52;;;0.70;;
75774;SDS011;64505;51.458;7.556;2023-04-12T06:23:42;3.70;;;1.00;;
75774;SDS011;64505;51.458;7.556;2023-04-12T06:25:43;4.10;;;1.23;;
75774;SDS011;64505;51.458;7.556;2023-04-12T06:27:45;3.78;;;1.02;;
75774;SDS011;64505;51.458;7.556;2023-04-12T06:29:46;2.20;;;1.00;;
75774;SDS011;64505;51.458;7.556;2023-04-12T06:31:47;4.25;;;1.58;;
75774;SDS011;64505;51.458;7.556;2023-04-12T06:33:49;4.55;;;1.40;;
75774;SDS011;64505;51.458;7.556;2023-04-12T06:35:50;3.33;;;1.25;;
75774;SDS011;64505;51.458;7.556;2023-04-12T06:37:52;3.10;;;0.85;;
75774;SDS011;64505;51.458;7.556;2023-04-12T06:39:53;1.77;;;0.80;;
75774;SDS011;64505;51.458;7.556;2023-04-12T06:41:55;4.65;;;1.25;;
75774;SDS011;64505;51.458;7.556;2023-04-12T06:43:57;2.60;;;1.05;;
75774;SDS011;64505;51.458;7.556;2023-04-12T06:45:59;3.45;;;0.98;;
75774;SDS011;64505;51.458;7.556;2023-04-12T06:48:03;1.65;;;0.80;;
75774;SDS011;64505;51.458;7.556;2023-04-12T06:50:04;3.97;;;1.00;;
75774;SDS011;64505;51.458;7.556;2023-04-12T06:52:07;2.22;;;0.90;;
75774;SDS011;64505;51.458;7.556;2023-04-12T06:54:08;2.65;;;0.90;;
75774;SDS011;64505;51.458;7.556;2023-04-12T06:56:10;2.03;;;0.60;;
75774;SDS011;64505;51.458;7.556;2023-04-12T06:58:11;3.40;;;0.68;;
75774;SDS011;64505;51.458;7.556;2023-04-12T07:00:13;1.13;;;0.50;;
75774;SDS011;64505;51.458;7.556;2023-04-12T07:02:15;0.73;;;0.47;;
75774;SDS011;64505;51.458;7.556;2023-04-12T07:04:16;1.65;;;0.60;;
75774;SDS011;64505;51.458;7.556;2023-04-12T07:06:18;1.20;;;0.50;;
75774;SDS011;64505;51.458;7.556;2023-04-12T07:08:26;1.77;;;0.50;;
75774;SDS011;64505;51.458;7.556;2023-04-12T07:10:30;0.90;;;0.50;;
75774;SDS011;64505;51.458;7.556;2023-04-12T07:12:33;1.27;;;0.30;;
75774;SDS011;64505;51.458;7.556;2023-04-12T07:14:34;1.45;;;0.50;;
75774;SDS011;64505;51.458;7.556;2023-04-12T07:16:35;1.60;;;0.60;;
75774;SDS011;64505;51.458;7.556;2023-04-12T07:18:37;2.00;;;0.90;;
75774;SDS011;64505;51.458;7.556;2023-04-12T07:20:40;1.85;;;0.70;;
75774;SDS011;64505;51.458;7.556;2023-04-12T07:22:41;2.63;;;0.50;;
75774;SDS011;64505;51.458;7.556;2023-04-12T07:24:43;3.22;;;0.57;;
75774;SDS011;64505;51.458;7.556;2023-04-12T07:26:44;1.92;;;0.80;;
75774;SDS011;64505;51.458;7.556;2023-04-12T07:28:46;1.23;;;0.50;;
75774;SDS011;64505;51.458;7.556;2023-04-12T07:30:47;2.20;;;0.70;;
75774;SDS011;64505;51.458;7.556;2023-04-12T07:32:49;1.33;;;0.50;;
75774;SDS011;64505;51.458;7.556;2023-04-12T07:34:50;0.77;;;0.50;;
75774;SDS011;64505;51.458;7.556;2023-04-12T07:36:53;1.38;;;0.50;;
75774;SDS011;64505;51.458;7.556;2023-04-12T07:38:54;1.30;;;0.40;;
75774;SDS011;64505;51.458;7.556;2023-04-12T07:40:57;1.48;;;0.60;;
75774;SDS011;64505;51.458;7.556;2023-04-12T07:42:58;0.90;;;0.50;;
75774;SDS011;64505;51.458;7.556;2023-04-12T07:45:00;3.03;;;0.50;;
75774;SDS011;64505;51.458;7.556;2023-04-12T07:47:02;0.95;;;0.50;;
75774;SDS011;64505;51.458;7.556;2023-04-12T07:49:03;0.82;;;0.35;;
75774;SDS011;64505;51.458;7.556;2023-04-12T07:51:05;2.47;;;0.55;;
75774;SDS011;64505;51.458;7.556;2023-04-12T07:53:22;0.43;;;0.35;;
75774;SDS011;64505;51.458;7.556;2023-04-12T07:55:26;1.83;;;0.57;;
75774;SDS011;64505;51.458;7.556;2023-04-12T07:57:28;0.85;;;0.20;;
75774;SDS011;64505;51.458;7.556;2023-04-12T07:59:29;0.70;;;0.25;;
75774;SDS011;64505;51.458;7.556;2023-04-12T08:01:31;0.50;;;0.30;;
75774;SDS011;64505;51.458;7.556;2023-04-12T08:03:33;0.77;;;0.40;;
75774;SDS011;64505;51.458;7.556;2023-04-12T08:05:34;1.52;;;0.30;;
75774;SDS011;64505;51.458;7.556;2023-04-12T08:07:36;1.13;;;0.40;;
75774;SDS011;64505;51.458;7.556;2023-04-12T08:09:37;1.52;;;0.50;;
75774;SDS011;64505;51.458;7.556;2023-04-12T08:11:39;0.65;;;0.32;;
75774;SDS011;64505;51.458;7.556;2023-04-12T08:13:40;0.40;;;0.30;;
75774;SDS011;64505;51.458;7.556;2023-04-12T08:15:42;0.50;;;0.28;;
75774;SDS011;64505;51.458;7.556;2023-04-12T08:17:47;1.70;;;0.40;;
75774;SDS011;64505;51.458;7.556;2023-04-12T08:19:49;1.80;;;0.50;;
75774;SDS011;64505;51.458;7.556;2023-04-12T08:21:50;1.38;;;0.50;;
75774;SDS011;64505;51.458;7.556;2023-04-12T08:23:53;0.43;;;0.40;;
75774;SDS011;64505;51.458;7.556;2023-04-12T08:25:54;0.88;;;0.50;;
75774;SDS011;64505;51.458;7.556;2023-04-12T08:28:02;1.08;;;0.30;;
75774;SDS011;64505;51.458;7.556;2023-04-12T08:30:04;0.82;;;0.40;;
75774;SDS011;64505;51.458;7.556;2023-04-12T08:32:06;1.38;;;0.38;;
75774;SDS011;64505;51.458;7.556;2023-04-12T08:34:09;1.15;;;0.43;;
75774;SDS011;64505;51.458;7.556;2023-04-12T08:36:11;1.20;;;0.40;;
75774;SDS011;64505;51.458;7.556;2023-04-12T08:38:12;0.43;;;0.25;;
75774;SDS011;64505;51.458;7.556;2023-04-12T08:40:14;1.38;;;0.30;;
75774;SDS011;64505;51.458;7.556;2023-04-12T08:42:16;0.82;;;0.32;;
75774;SDS011;64505;51.458;7.556;2023-04-12T08:44:17;0.30;;;0.30;;
75774;SDS011;64505;51.458;7.556;2023-04-12T08:46:20;0.73;;;0.20;;
75774;SDS011;64505;51.458;7.556;2023-04-12T08:48:22;0.40;;;0.30;;
75774;SDS011;64505;51.458;7.556;2023-04-12T08:50:25;0.63;;;0.40;;
75774;SDS011;64505;51.458;7.556;2023-04-12T08:52:27;0.88;;;0.40;;
75774;SDS011;64505;51.458;7.556;2023-04-12T08:54:28;1.15;;;0.47;;
75774;SDS011;64505;51.458;7.556;2023-04-12T08:56:30;0.65;;;0.30;;
75774;SDS011;64505;51.458;7.556;2023-04-12T08:58:32;1.25;;;0.32;;
75774;SDS011;64505;51.458;7.556;2023-04-12T09:00:35;0.40;;;0.30;;
75774;SDS011;64505;51.458;7.556;2023-04-12T09:02:37;0.80;;;0.40;;
75774;SDS011;64505;51.458;7.556;2023-04-12T09:04:49;0.68;;;0.40;;
75774;SDS011;64505;51.458;7.556;2023-04-12T09:06:51;1.00;;;0.50;;
75774;SDS011;64505;51.458;7.556;2023-04-12T09:08:53;0.68;;;0.43;;
75774;SDS011;64505;51.458;7.556;2023-04-12T09:10:56;1.35;;;0.40;;
75774;SDS011;64505;51.458;7.556;2023-04-12T09:12:58;1.80;;;0.50;;
75774;SDS011;64505;51.458;7.556;2023-04-12T09:15:08;1.55;;;0.30;;
75774;SDS011;64505;51.458;7.556;2023-04-12T09:17:25;1.42;;;0.40;;
75774;SDS011;64505;51.458;7.556;2023-04-12T09:19:31;0.77;;;0.40;;
75774;SDS011;64505;51.458;7.556;2023-04-12T09:21:34;1.38;;;0.40;;
75774;SDS011;64505;51.458;7.556;2023-04-12T09:23:36;0.40;;;0.32;;
75774;SDS011;64505;51.458;7.556;2023-04-12T09:25:39;0.50;;;0.38;;
75774;SDS011;64505;51.458;7.556;2023-04-12T09:27:48;1.10;;;0.40;;
75774;SDS011;64505;51.458;7.556;2023-04-12T09:29:50;1.02;;;0.38;;
75774;SDS011;64505;51.458;7.556;2023-04-12T09:32:02;0.30;;;0.30;;
75774;SDS011;64505;51.458;7.556;2023-04-12T09:34:06;0.40;;;0.40;;
75774;SDS011;64505;51.458;7.556;2023-04-12T09:36:09;0.93;;;0.40;;
75774;SDS011;64505;51.458;7.556;2023-04-12T09:38:14;0.30;;;0.30;;
75774;SDS011;64505;51.458;7.556;2023-04-12T09:40:16;0.73;;;0.30;;
75774;SDS011;64505;51.458;7.556;2023-04-12T09:42:25;0.80;;;0.50;;
75774;SDS011;64505;51.458;7.556;2023-04-12T09:44:34;0.65;;;0.40;;
75774;SDS011;64505;51.458;7.556;2023-04-12T09:46:36;1.77;;;0.40;;
75774;SDS011;64505;51.458;7.556;2023-04-12T09:48:51;0.95;;;0.50;;
75774;SDS011;64505;51.458;7.556;2023-04-12T09:50:57;0.52;;;0.30;;
75774;SDS011;64505;51.458;7.556;2023-04-12T09:53:00;0.40;;;0.30;;
75774;SDS011;64505;51.458;7.556;2023-04-12T09:55:07;0.45;;;0.40;;
75774;SDS011;64505;51.458;7.556;2023-04-12T09:57:10;1.27;;;0.50;;
75774;SDS011;64505;51.458;7.556;2023-04-12T09:59:12;0.75;;;0.38;;
75774;SDS011;64505;51.458;7.556;2023-04-12T10:01:16;1.15;;;0.47;;
75774;SDS011;64505;51.458;7.556;2023-04-12T10:03:19;1.98;;;0.32;;
75774;SDS011;64505;51.458;7.556;2023-04-12T10:05:21;1.17;;;0.40;;
75774;SDS011;64505;51.458;7.556;2023-04-12T10:07:26;1.38;;;0.85;;
75774;SDS011;64505;51.458;7.556;2023-04-12T10:09:28;0.93;;;0.30;;
75774;SDS011;64505;51.458;7.556;2023-04-12T10:11:30;1.02;;;0.40;;
75774;SDS011;64505;51.458;7.556;2023-04-12T10:13:32;2.85;;;0.50;;
75774;SDS011;64505;51.458;7.556;2023-04-12T10:15:34;1.33;;;0.50;;
75774;SDS011;64505;51.458;7.556;2023-04-12T10:17:36;1.52;;;0.60;;
75774;SDS011;64505;51.458;7.556;2023-04-12T10:19:45;1.42;;;0.52;;
75774;SDS011;64505;51.458;7.556;2023-04-12T10:21:47;0.60;;;0.43;;
75774;SDS011;64505;51.458;7.556;2023-04-12T10:23:49;0.73;;;0.40;;
75774;SDS011;64505;51.458;7.556;2023-04-12T10:25:50;1.42;;;0.65;;
75774;SDS011;64505;51.458;7.556;2023-04-12T10:27:55;0.95;;;0.50;;
75774;SDS011;64505;51.458;7.556;2023-04-12T10:30:17;0.77;;;0.50;;
75774;SDS011;64505;51.458;7.556;2023-04-12T10:32:26;0.68;;;0.40;;
75774;SDS011;64505;51.458;7.556;2023-04-12T10:34:28;1.27;;;0.60;;
75774;SDS011;64505;51.458;7.556;2023-04-12T10:39:08;1.38;;;0.45;;
75774;SDS011;64505;51.458;7.556;2023-04-12T10:41:12;1.85;;;0.60;;
75774;SDS011;64505;51.458;7.556;2023-04-12T10:43:24;0.80;;;0.50;;
75774;SDS011;64505;51.458;7.556;2023-04-12T10:52:21;1.33;;;0.63;;
75774;SDS011;64505;51.458;7.556;2023-04-12T11:03:06;1.05;;;0.40;;
75774;SDS011;64505;51.458;7.556;2023-04-12T11:05:12;1.17;;;0.43;;
75774;SDS011;64505;51.458;7.556;2023-04-12T11:07:18;1.13;;;0.40;;
75774;SDS011;64505;51.458;7.556;2023-04-12T11:11:34;1.10;;;0.50;;
75774;SDS011;64505;51.458;7.556;2023-04-12T11:13:37;1.48;;;0.45;;
75774;SDS011;64505;51.458;7.556;2023-04-12T11:15:38;1.35;;;0.43;;
75774;SDS011;64505;51.458;7.556;2023-04-12T11:17:40;0.60;;;0.50;;
75774;SDS011;64505;51.458;7.556;2023-04-12T11:19:48;0.82;;;0.40;;
75774;SDS011;64505;51.458;7.556;2023-04-12T11:21:51;0.60;;;0.30;;
75774;SDS011;64505;51.458;7.556;2023-04-12T11:23:53;1.20;;;0.50;;
75774;SDS011;64505;51.458;7.556;2023-04-12T11:25:56;0.55;;;0.40;;
75774;SDS011;64505;51.458;7.556;2023-04-12T11:27:59;1.45;;;0.57;;
75774;SDS011;64505;51.458;7.556;2023-04-12T11:30:00;0.55;;;0.40;;
75774;SDS011;64505;51.458;7.556;2023-04-12T11:32:02;0.73;;;0.50;;
75774;SDS011;64505;51.458;7.556;2023-04-12T11:34:06;0.68;;;0.40;;
75774;SDS011;64505;51.458;7.556;2023-04-12T11:36:08;0.47;;;0.32;;
75774;SDS011;64505;51.458;7.556;2023-04-12T11:38:12;0.73;;;0.50;;
75774;SDS011;64505;51.458;7.556;2023-04-12T11:40:14;1.15;;;0.50;;
75774;SDS011;64505;51.458;7.556;2023-04-12T11:42:16;1.00;;;0.40;;
75774;SDS011;64505;51.458;7.556;2023-04-12T11:44:19;2.28;;;0.40;;
75774;SDS011;64505;51.458;7.556;2023-04-12T11:46:22;1.05;;;0.43;;
75774;SDS011;64505;51.458;7.556;2023-04-12T11:48:25;1.13;;;0.60;;
75774;SDS011;64505;51.458;7.556;2023-04-12T11:50:28;1.02;;;0.70;;
75774;SDS011;64505;51.458;7.556;2023-04-12T11:52:31;2.85;;;0.60;;
75774;SDS011;64505;51.458;7.556;2023-04-12T11:54:33;1.23;;;0.70;;
75774;SDS011;64505;51.458;7.556;2023-04-12T11:56:35;1.33;;;0.50;;
75774;SDS011;64505;51.458;7.556;2023-04-12T11:58:37;1.70;;;0.47;;
75774;SDS011;64505;51.458;7.556;2023-04-12T12:00:40;1.20;;;0.52;;
75774;SDS011;64505;51.458;7.556;2023-04-12T12:02:42;1.15;;;0.60;;
75774;SDS011;64505;51.458;7.556;2023-04-12T12:05:03;0.75;;;0.40;;
75774;SDS011;64505;51.458;7.556;2023-04-12T12:07:07;0.55;;;0.40;;
75774;SDS011;64505;51.458;7.556;2023-04-12T12:09:09;0.65;;;0.38;;
75774;SDS011;64505;51.458;7.556;2023-04-12T12:11:11;2.10;;;0.50;;
75774;SDS011;64505;51.458;7.556;2023-04-12T12:13:13;0.60;;;0.47;;
75774;SDS011;64505;51.458;7.556;2023-04-12T12:15:15;0.70;;;0.40;;
75774;SDS011;64505;51.458;7.556;2023-04-12T12:17:16;0.63;;;0.40;;
75774;SDS011;64505;51.458;7.556;2023-04-12T12:21:29;1.48;;;0.60;;
75774;SDS011;64505;51.458;7.556;2023-04-12T12:23:31;1.23;;;0.70;;
75774;SDS011;64505;51.458;7.556;2023-04-12T12:25:33;3.17;;;0.80;;
75774;SDS011;64505;51.458;7.556;2023-04-12T12:27:35;2.28;;;0.65;;
75774;SDS011;64505;51.458;7.556;2023-04-12T12:29:38;1.83;;;1.00;;
75774;SDS011;64505;51.458;7.556;2023-04-12T12:31:40;1.42;;;0.82;;
75774;SDS011;64505;51.458;7.556;2023-04-12T12:33:47;2.72;;;1.00;;
75774;SDS011;64505;51.458;7.556;2023-04-12T12:35:56;3.10;;;1.40;;
75774;SDS011;64505;51.458;7.556;2023-04-12T12:37:57;4.32;;;1.85;;
75774;SDS011;64505;51.458;7.556;2023-04-12T12:40:01;3.17;;;1.98;;
75774;SDS011;64505;51.458;7.556;2023-04-12T12:42:29;4.03;;;2.13;;
75774;SDS011;64505;51.458;7.556;2023-04-12T12:44:31;4.55;;;2.50;;
75774;SDS011;64505;51.458;7.556;2023-04-12T12:46:37;4.97;;;2.50;;
75774;SDS011;64505;51.458;7.556;2023-04-12T12:48:42;4.60;;;2.25;;
75774;SDS011;64505;51.458;7.556;2023-04-12T12:50:48;4.30;;;2.58;;
75774;SDS011;64505;51.458;7.556;2023-04-12T12:52:50;4.95;;;2.53;;
75774;SDS011;64505;51.458;7.556;2023-04-12T12:54:52;3.97;;;2.15;;
75774;SDS011;64505;51.458;7.556;2023-04-12T12:56:53;4.47;;;2.33;;